sensor_id;sensor_type;location;lat;lon;timestamp;P1;durP1;ratioP1;P2;durP2;ratioP2
59599;SDS011;61855;55.030;73.326;2022-08-21T00:00:25;23.13;;;13.57;;
59599;SDS011;61855;55.030;73.326;2022-08-21T00:03:00;24.02;;;13.10;;
59599;SDS011;61855;55.030;73.326;2022-08-21T00:05:30;23.05;;;12.65;;
59599;SDS011;61855;55.030;73.326;2022-08-21T00:07:57;21.17;;;11.13;;
59599;SDS011;61855;55.030;73.326;2022-08-21T00:10:24;20.27;;;11.82;;
59599;SDS011;61855;55.030;73.326;2022-08-21T00:12:50;22.33;;;11.70;;
59599;SDS011;61855;55.030;73.326;2022-08-21T00:15:18;22.10;;;11.35;;
59599;SDS011;61855;55.030;73.326;2022-08-21T00:17:46;18.23;;;11.25;;
59599;SDS011;61855;55.030;73.326;2022-08-21T00:20:13;19.73;;;10.57;;
59599;SDS011;61855;55.030;73.326;2022-08-21T00:22:41;17.42;;;9.90;;
59599;SDS011;61855;55.030;73.326;2022-08-21T00:25:07;14.52;;;8.95;;
59599;SDS011;61855;55.030;73.326;2022-08-21T00:27:35;19.27;;;8.82;;
59599;SDS011;61855;55.030;73.326;2022-08-21T00:30:02;15.13;;;9.10;;
59599;SDS011;61855;55.030;73.326;2022-08-21T00:32:30;17.92;;;8.18;;
59599;SDS011;61855;55.030;73.326;2022-08-21T00:34:56;12.60;;;7.88;;
59599;SDS011;61855;55.030;73.326;2022-08-21T00:37:22;17.52;;;7.90;;
59599;SDS011;61855;55.030;73.326;2022-08-21T00:39:52;10.60;;;7.60;;
59599;SDS011;61855;55.030;73.326;2022-08-21T00:42:19;14.20;;;6.95;;
59599;SDS011;61855;55.030;73.326;2022-08-21T00:44:48;11.63;;;6.43;;
59599;SDS011;61855;55.030;73.326;2022-08-21T00:47:17;10.50;;;6.50;;
59599;SDS011;61855;55.030;73.326;2022-08-21T00:49:43;11.30;;;6.55;;
59599;SDS011;61855;55.030;73.326;2022-08-21T00:52:11;9.18;;;6.05;;
59599;SDS011;61855;55.030;73.326;2022-08-21T00:54:42;14.52;;;5.88;;
59599;SDS011;61855;55.030;73.326;2022-08-21T00:57:17;10.43;;;6.47;;
59599;SDS011;61855;55.030;73.326;2022-08-21T00:59:47;13.18;;;6.47;;
59599;SDS011;61855;55.030;73.326;2022-08-21T01:02:17;9.38;;;6.15;;
59599;SDS011;61855;55.030;73.326;2022-08-21T01:04:49;13.52;;;5.85;;
59599;SDS011;61855;55.030;73.326;2022-08-21T01:07:15;9.18;;;5.68;;
59599;SDS011;61855;55.030;73.326;2022-08-21T01:09:42;13.30;;;6.65;;
59599;SDS011;61855;55.030;73.326;2022-08-21T01:12:08;10.98;;;7.20;;
59599;SDS011;61855;55.030;73.326;2022-08-21T01:14:35;11.98;;;6.57;;
59599;SDS011;61855;55.030;73.326;2022-08-21T01:17:01;12.45;;;7.00;;
59599;SDS011;61855;55.030;73.326;2022-08-21T01:19:29;13.85;;;6.88;;
59599;SDS011;61855;55.030;73.326;2022-08-21T01:21:55;11.82;;;6.38;;
59599;SDS011;61855;55.030;73.326;2022-08-21T01:24:22;9.35;;;6.05;;
59599;SDS011;61855;55.030;73.326;2022-08-21T01:26:48;15.18;;;7.28;;
59599;SDS011;61855;55.030;73.326;2022-08-21T01:29:19;10.30;;;6.63;;
59599;SDS011;61855;55.030;73.326;2022-08-21T01:35:56;9.38;;;6.00;;
59599;SDS011;61855;55.030;73.326;2022-08-21T01:38:22;9.45;;;6.40;;
59599;SDS011;61855;55.030;73.326;2022-08-21T01:40:53;9.77;;;6.35;;
59599;SDS011;61855;55.030;73.326;2022-08-21T01:43:30;10.85;;;6.40;;
59599;SDS011;61855;55.030;73.326;2022-08-21T01:46:02;8.75;;;5.63;;
59599;SDS011;61855;55.030;73.326;2022-08-21T01:48:29;9.77;;;6.13;;
59599;SDS011;61855;55.030;73.326;2022-08-21T01:50:55;9.65;;;6.53;;
59599;SDS011;61855;55.030;73.326;2022-08-21T01:53:21;9.52;;;6.30;;
59599;SDS011;61855;55.030;73.326;2022-08-21T01:55:50;11.93;;;6.28;;
59599;SDS011;61855;55.030;73.326;2022-08-21T01:58:21;8.52;;;6.40;;
59599;SDS011;61855;55.030;73.326;2022-08-21T02:00:47;12.13;;;6.35;;
59599;SDS011;61855;55.030;73.326;2022-08-21T02:03:28;9.75;;;6.57;;
59599;SDS011;61855;55.030;73.326;2022-08-21T02:05:59;10.52;;;6.25;;
59599;SDS011;61855;55.030;73.326;2022-08-21T02:08:26;10.93;;;6.60;;
59599;SDS011;61855;55.030;73.326;2022-08-21T02:10:53;11.68;;;6.80;;
59599;SDS011;61855;55.030;73.326;2022-08-21T02:13:19;10.13;;;6.57;;
59599;SDS011;61855;55.030;73.326;2022-08-21T02:15:46;14.85;;;7.85;;
59599;SDS011;61855;55.030;73.326;2022-08-21T02:18:24;13.10;;;7.47;;
59599;SDS011;61855;55.030;73.326;2022-08-21T02:20:50;11.43;;;6.78;;
59599;SDS011;61855;55.030;73.326;2022-08-21T02:23:16;10.57;;;6.75;;
59599;SDS011;61855;55.030;73.326;2022-08-21T02:25:42;14.32;;;7.13;;
59599;SDS011;61855;55.030;73.326;2022-08-21T02:28:10;12.27;;;7.00;;
59599;SDS011;61855;55.030;73.326;2022-08-21T02:30:49;12.57;;;7.70;;
59599;SDS011;61855;55.030;73.326;2022-08-21T02:33:16;10.13;;;7.18;;
59599;SDS011;61855;55.030;73.326;2022-08-21T02:35:43;12.93;;;6.43;;
59599;SDS011;61855;55.030;73.326;2022-08-21T02:38:12;11.68;;;6.57;;
59599;SDS011;61855;55.030;73.326;2022-08-21T02:40:42;11.75;;;6.75;;
59599;SDS011;61855;55.030;73.326;2022-08-21T02:43:12;9.05;;;6.45;;
59599;SDS011;61855;55.030;73.326;2022-08-21T02:45:39;9.88;;;6.45;;
59599;SDS011;61855;55.030;73.326;2022-08-21T02:48:13;11.80;;;6.70;;
59599;SDS011;61855;55.030;73.326;2022-08-21T02:50:42;10.90;;;6.50;;
59599;SDS011;61855;55.030;73.326;2022-08-21T02:53:14;12.43;;;6.55;;
59599;SDS011;61855;55.030;73.326;2022-08-21T02:55:42;9.60;;;6.78;;
59599;SDS011;61855;55.030;73.326;2022-08-21T02:58:10;11.27;;;6.97;;
59599;SDS011;61855;55.030;73.326;2022-08-21T03:00:38;8.65;;;6.30;;
59599;SDS011;61855;55.030;73.326;2022-08-21T03:03:13;11.95;;;7.22;;
59599;SDS011;61855;55.030;73.326;2022-08-21T03:05:40;10.88;;;6.70;;
59599;SDS011;61855;55.030;73.326;2022-08-21T03:08:07;9.77;;;6.90;;
59599;SDS011;61855;55.030;73.326;2022-08-21T03:10:48;9.38;;;6.43;;
59599;SDS011;61855;55.030;73.326;2022-08-21T03:13:16;9.90;;;6.47;;
59599;SDS011;61855;55.030;73.326;2022-08-21T03:15:43;9.85;;;6.25;;
59599;SDS011;61855;55.030;73.326;2022-08-21T03:18:10;10.70;;;6.43;;
59599;SDS011;61855;55.030;73.326;2022-08-21T03:20:37;9.65;;;6.07;;
59599;SDS011;61855;55.030;73.326;2022-08-21T03:23:09;12.23;;;6.90;;
59599;SDS011;61855;55.030;73.326;2022-08-21T03:25:35;12.52;;;7.13;;
59599;SDS011;61855;55.030;73.326;2022-08-21T03:28:02;10.52;;;7.20;;
59599;SDS011;61855;55.030;73.326;2022-08-21T03:30:30;11.73;;;6.88;;
59599;SDS011;61855;55.030;73.326;2022-08-21T03:33:00;9.32;;;6.35;;
59599;SDS011;61855;55.030;73.326;2022-08-21T03:35:26;10.77;;;6.15;;
59599;SDS011;61855;55.030;73.326;2022-08-21T03:37:53;12.02;;;7.57;;
59599;SDS011;61855;55.030;73.326;2022-08-21T03:40:22;10.00;;;7.55;;
59599;SDS011;61855;55.030;73.326;2022-08-21T03:42:52;12.18;;;7.70;;
59599;SDS011;61855;55.030;73.326;2022-08-21T03:45:19;13.98;;;8.15;;
59599;SDS011;61855;55.030;73.326;2022-08-21T03:48:00;13.82;;;8.30;;
59599;SDS011;61855;55.030;73.326;2022-08-21T03:50:29;18.30;;;9.02;;
59599;SDS011;61855;55.030;73.326;2022-08-21T03:53:03;18.80;;;11.05;;
59599;SDS011;61855;55.030;73.326;2022-08-21T03:55:31;15.75;;;8.48;;
59599;SDS011;61855;55.030;73.326;2022-08-21T03:57:58;15.05;;;9.38;;
59599;SDS011;61855;55.030;73.326;2022-08-21T04:00:24;17.73;;;12.38;;
59599;SDS011;61855;55.030;73.326;2022-08-21T04:02:51;16.02;;;9.50;;
59599;SDS011;61855;55.030;73.326;2022-08-21T04:05:18;17.10;;;10.77;;
59599;SDS011;61855;55.030;73.326;2022-08-21T04:10:32;17.25;;;9.60;;
59599;SDS011;61855;55.030;73.326;2022-08-21T04:13:05;22.02;;;10.48;;
59599;SDS011;61855;55.030;73.326;2022-08-21T04:15:32;21.58;;;10.60;;
59599;SDS011;61855;55.030;73.326;2022-08-21T04:18:03;21.92;;;11.13;;
59599;SDS011;61855;55.030;73.326;2022-08-21T04:20:30;19.17;;;11.02;;
59599;SDS011;61855;55.030;73.326;2022-08-21T04:22:57;18.63;;;11.80;;
59599;SDS011;61855;55.030;73.326;2022-08-21T04:25:23;22.50;;;11.55;;
59599;SDS011;61855;55.030;73.326;2022-08-21T04:27:50;22.42;;;11.13;;
59599;SDS011;61855;55.030;73.326;2022-08-21T04:30:17;20.50;;;10.27;;
59599;SDS011;61855;55.030;73.326;2022-08-21T04:32:49;24.67;;;12.90;;
59599;SDS011;61855;55.030;73.326;2022-08-21T04:35:19;24.98;;;12.05;;
59599;SDS011;61855;55.030;73.326;2022-08-21T04:37:52;21.20;;;11.98;;
59599;SDS011;61855;55.030;73.326;2022-08-21T04:40:28;23.63;;;12.93;;
59599;SDS011;61855;55.030;73.326;2022-08-21T04:42:56;23.00;;;13.43;;
59599;SDS011;61855;55.030;73.326;2022-08-21T04:45:27;20.50;;;12.60;;
59599;SDS011;61855;55.030;73.326;2022-08-21T04:47:59;23.27;;;14.35;;
59599;SDS011;61855;55.030;73.326;2022-08-21T04:50:52;23.88;;;14.02;;
59599;SDS011;61855;55.030;73.326;2022-08-21T04:53:18;28.20;;;16.52;;
59599;SDS011;61855;55.030;73.326;2022-08-21T04:55:48;27.50;;;14.07;;
59599;SDS011;61855;55.030;73.326;2022-08-21T04:58:16;25.27;;;14.38;;
59599;SDS011;61855;55.030;73.326;2022-08-21T05:00:54;25.58;;;14.00;;
59599;SDS011;61855;55.030;73.326;2022-08-21T05:03:22;22.08;;;13.38;;
59599;SDS011;61855;55.030;73.326;2022-08-21T05:05:48;24.25;;;14.15;;
59599;SDS011;61855;55.030;73.326;2022-08-21T05:08:17;18.35;;;12.30;;
59599;SDS011;61855;55.030;73.326;2022-08-21T05:10:46;16.33;;;11.15;;
59599;SDS011;61855;55.030;73.326;2022-08-21T05:13:13;18.60;;;11.10;;
59599;SDS011;61855;55.030;73.326;2022-08-21T05:15:39;12.75;;;9.50;;
59599;SDS011;61855;55.030;73.326;2022-08-21T05:18:07;17.00;;;10.25;;
59599;SDS011;61855;55.030;73.326;2022-08-21T05:20:34;12.93;;;8.98;;
59599;SDS011;61855;55.030;73.326;2022-08-21T05:23:00;10.95;;;9.15;;
59599;SDS011;61855;55.030;73.326;2022-08-21T05:25:42;11.55;;;8.52;;
59599;SDS011;61855;55.030;73.326;2022-08-21T05:28:09;9.73;;;6.43;;
59599;SDS011;61855;55.030;73.326;2022-08-21T05:30:37;8.25;;;5.50;;
59599;SDS011;61855;55.030;73.326;2022-08-21T05:33:06;8.13;;;4.53;;
59599;SDS011;61855;55.030;73.326;2022-08-21T05:35:39;5.20;;;4.30;;
59599;SDS011;61855;55.030;73.326;2022-08-21T05:38:06;7.97;;;5.60;;
59599;SDS011;61855;55.030;73.326;2022-08-21T05:40:32;7.05;;;4.40;;
59599;SDS011;61855;55.030;73.326;2022-08-21T05:42:59;5.57;;;3.50;;
59599;SDS011;61855;55.030;73.326;2022-08-21T05:45:27;4.53;;;2.97;;
59599;SDS011;61855;55.030;73.326;2022-08-21T05:47:55;5.78;;;3.20;;
59599;SDS011;61855;55.030;73.326;2022-08-21T05:50:23;5.57;;;3.60;;
59599;SDS011;61855;55.030;73.326;2022-08-21T05:52:49;4.40;;;3.28;;
59599;SDS011;61855;55.030;73.326;2022-08-21T05:55:15;4.10;;;3.25;;
59599;SDS011;61855;55.030;73.326;2022-08-21T05:57:41;8.10;;;3.00;;
59599;SDS011;61855;55.030;73.326;2022-08-21T06:00:08;5.72;;;3.40;;
59599;SDS011;61855;55.030;73.326;2022-08-21T06:02:40;3.60;;;2.60;;
59599;SDS011;61855;55.030;73.326;2022-08-21T06:05:06;2.80;;;2.30;;
59599;SDS011;61855;55.030;73.326;2022-08-21T06:07:33;3.58;;;2.80;;
59599;SDS011;61855;55.030;73.326;2022-08-21T06:10:00;4.50;;;3.20;;
59599;SDS011;61855;55.030;73.326;2022-08-21T06:12:26;3.15;;;2.60;;
59599;SDS011;61855;55.030;73.326;2022-08-21T06:14:52;4.22;;;2.63;;
59599;SDS011;61855;55.030;73.326;2022-08-21T06:17:18;3.35;;;2.60;;
59599;SDS011;61855;55.030;73.326;2022-08-21T06:19:49;5.30;;;3.38;;
59599;SDS011;61855;55.030;73.326;2022-08-21T06:22:17;4.00;;;2.50;;
59599;SDS011;61855;55.030;73.326;2022-08-21T06:24:43;5.85;;;4.20;;
59599;SDS011;61855;55.030;73.326;2022-08-21T06:27:10;9.05;;;6.88;;
59599;SDS011;61855;55.030;73.326;2022-08-21T06:29:42;2.47;;;1.70;;
59599;SDS011;61855;55.030;73.326;2022-08-21T06:32:10;7.63;;;6.55;;
59599;SDS011;61855;55.030;73.326;2022-08-21T06:34:39;3.53;;;3.00;;
59599;SDS011;61855;55.030;73.326;2022-08-21T06:37:06;3.28;;;2.97;;
59599;SDS011;61855;55.030;73.326;2022-08-21T06:39:33;2.75;;;2.55;;
59599;SDS011;61855;55.030;73.326;2022-08-21T06:41:59;2.25;;;1.90;;
59599;SDS011;61855;55.030;73.326;2022-08-21T06:44:28;3.00;;;2.47;;
59599;SDS011;61855;55.030;73.326;2022-08-21T06:46:55;1.70;;;1.40;;
59599;SDS011;61855;55.030;73.326;2022-08-21T06:49:22;11.25;;;7.43;;
59599;SDS011;61855;55.030;73.326;2022-08-21T06:51:53;3.25;;;2.72;;
59599;SDS011;61855;55.030;73.326;2022-08-21T06:54:20;2.63;;;1.70;;
59599;SDS011;61855;55.030;73.326;2022-08-21T06:56:46;1.27;;;1.17;;
59599;SDS011;61855;55.030;73.326;2022-08-21T06:59:12;3.38;;;3.05;;
59599;SDS011;61855;55.030;73.326;2022-08-21T07:01:43;17.63;;;11.80;;
59599;SDS011;61855;55.030;73.326;2022-08-21T07:04:10;13.48;;;9.05;;
59599;SDS011;61855;55.030;73.326;2022-08-21T07:06:40;5.05;;;3.53;;
59599;SDS011;61855;55.030;73.326;2022-08-21T07:09:06;3.20;;;1.60;;
59599;SDS011;61855;55.030;73.326;2022-08-21T07:11:43;1.20;;;1.10;;
59599;SDS011;61855;55.030;73.326;2022-08-21T07:14:13;10.85;;;7.47;;
59599;SDS011;61855;55.030;73.326;2022-08-21T07:16:39;3.63;;;2.65;;
59599;SDS011;61855;55.030;73.326;2022-08-21T07:19:05;1.38;;;1.08;;
59599;SDS011;61855;55.030;73.326;2022-08-21T07:21:31;1.70;;;1.50;;
59599;SDS011;61855;55.030;73.326;2022-08-21T07:24:01;1.63;;;0.68;;
59599;SDS011;61855;55.030;73.326;2022-08-21T07:26:27;0.85;;;0.85;;
59599;SDS011;61855;55.030;73.326;2022-08-21T07:28:55;0.85;;;0.63;;
59599;SDS011;61855;55.030;73.326;2022-08-21T07:31:28;0.80;;;0.50;;
59599;SDS011;61855;55.030;73.326;2022-08-21T07:33:54;1.10;;;0.63;;
59599;SDS011;61855;55.030;73.326;2022-08-21T07:36:21;1.42;;;0.75;;
59599;SDS011;61855;55.030;73.326;2022-08-21T07:38:47;1.25;;;0.50;;
59599;SDS011;61855;55.030;73.326;2022-08-21T07:41:22;0.68;;;0.55;;
59599;SDS011;61855;55.030;73.326;2022-08-21T07:43:51;0.60;;;0.52;;
59599;SDS011;61855;55.030;73.326;2022-08-21T07:46:17;1.05;;;0.63;;
59599;SDS011;61855;55.030;73.326;2022-08-21T07:48:43;0.88;;;0.60;;
59599;SDS011;61855;55.030;73.326;2022-08-21T07:51:10;1.45;;;0.50;;
59599;SDS011;61855;55.030;73.326;2022-08-21T07:53:38;0.70;;;0.50;;
59599;SDS011;61855;55.030;73.326;2022-08-21T07:56:09;1.30;;;0.40;;
59599;SDS011;61855;55.030;73.326;2022-08-21T07:58:47;2.60;;;0.77;;
59599;SDS011;61855;55.030;73.326;2022-08-21T08:01:14;0.50;;;0.50;;
59599;SDS011;61855;55.030;73.326;2022-08-21T08:03:42;1.02;;;0.50;;
59599;SDS011;61855;55.030;73.326;2022-08-21T08:06:08;0.57;;;0.50;;
59599;SDS011;61855;55.030;73.326;2022-08-21T08:08:41;2.08;;;0.52;;
59599;SDS011;61855;55.030;73.326;2022-08-21T08:11:08;0.40;;;0.40;;
59599;SDS011;61855;55.030;73.326;2022-08-21T08:13:41;1.00;;;0.70;;
59599;SDS011;61855;55.030;73.326;2022-08-21T08:16:12;4.20;;;0.70;;
59599;SDS011;61855;55.030;73.326;2022-08-21T08:18:38;3.00;;;0.70;;
59599;SDS011;61855;55.030;73.326;2022-08-21T08:21:04;1.27;;;0.60;;
59599;SDS011;61855;55.030;73.326;2022-08-21T08:23:31;1.58;;;1.10;;
59599;SDS011;61855;55.030;73.326;2022-08-21T08:25:58;1.85;;;1.23;;
59599;SDS011;61855;55.030;73.326;2022-08-21T08:28:24;1.58;;;1.35;;
59599;SDS011;61855;55.030;73.326;2022-08-21T08:30:51;2.97;;;1.23;;
59599;SDS011;61855;55.030;73.326;2022-08-21T08:33:17;4.43;;;1.48;;
59599;SDS011;61855;55.030;73.326;2022-08-21T08:35:50;1.85;;;0.80;;
59599;SDS011;61855;55.030;73.326;2022-08-21T08:38:17;3.83;;;2.20;;
59599;SDS011;61855;55.030;73.326;2022-08-21T08:43:35;5.93;;;3.75;;
59599;SDS011;61855;55.030;73.326;2022-08-21T08:46:03;3.30;;;2.30;;
59599;SDS011;61855;55.030;73.326;2022-08-21T08:51:26;3.08;;;1.38;;
59599;SDS011;61855;55.030;73.326;2022-08-21T08:54:15;7.72;;;2.05;;
59599;SDS011;61855;55.030;73.326;2022-08-21T08:56:46;2.83;;;1.27;;
59599;SDS011;61855;55.030;73.326;2022-08-21T08:59:16;6.13;;;2.47;;
59599;SDS011;61855;55.030;73.326;2022-08-21T09:01:49;3.40;;;1.50;;
59599;SDS011;61855;55.030;73.326;2022-08-21T09:04:23;4.97;;;1.40;;
59599;SDS011;61855;55.030;73.326;2022-08-21T09:07:09;3.03;;;1.40;;
59599;SDS011;61855;55.030;73.326;2022-08-21T09:09:48;2.20;;;1.00;;
59599;SDS011;61855;55.030;73.326;2022-08-21T09:26:00;1.90;;;0.95;;
59599;SDS011;61855;55.030;73.326;2022-08-21T09:28:42;2.42;;;1.30;;
59599;SDS011;61855;55.030;73.326;2022-08-21T09:31:21;2.45;;;1.50;;
59599;SDS011;61855;55.030;73.326;2022-08-21T09:34:06;0.77;;;0.65;;
59599;SDS011;61855;55.030;73.326;2022-08-21T09:36:37;3.38;;;1.40;;
59599;SDS011;61855;55.030;73.326;2022-08-21T09:39:09;4.40;;;2.03;;
59599;SDS011;61855;55.030;73.326;2022-08-21T09:41:38;3.53;;;1.60;;
59599;SDS011;61855;55.030;73.326;2022-08-21T09:44:05;5.35;;;3.03;;
59599;SDS011;61855;55.030;73.326;2022-08-21T09:46:33;3.95;;;2.13;;
59599;SDS011;61855;55.030;73.326;2022-08-21T09:49:01;4.00;;;2.00;;
59599;SDS011;61855;55.030;73.326;2022-08-21T09:51:30;3.25;;;2.13;;
59599;SDS011;61855;55.030;73.326;2022-08-21T09:56:40;6.63;;;3.95;;
59599;SDS011;61855;55.030;73.326;2022-08-21T09:59:39;2.78;;;1.90;;
59599;SDS011;61855;55.030;73.326;2022-08-21T10:02:26;5.13;;;1.73;;
59599;SDS011;61855;55.030;73.326;2022-08-21T10:04:58;2.90;;;1.85;;
59599;SDS011;61855;55.030;73.326;2022-08-21T10:07:43;9.45;;;4.28;;
59599;SDS011;61855;55.030;73.326;2022-08-21T10:10:15;5.32;;;3.67;;
59599;SDS011;61855;55.030;73.326;2022-08-21T10:15:39;9.15;;;4.28;;
59599;SDS011;61855;55.030;73.326;2022-08-21T10:21:39;12.02;;;4.65;;
59599;SDS011;61855;55.030;73.326;2022-08-21T10:24:09;3.92;;;2.28;;
59599;SDS011;61855;55.030;73.326;2022-08-21T10:31:07;4.60;;;1.38;;
59599;SDS011;61855;55.030;73.326;2022-08-21T10:36:29;2.65;;;1.20;;
59599;SDS011;61855;55.030;73.326;2022-08-21T10:45:07;5.75;;;2.70;;
59599;SDS011;61855;55.030;73.326;2022-08-21T10:47:54;10.25;;;3.40;;
59599;SDS011;61855;55.030;73.326;2022-08-21T10:56:14;7.72;;;3.65;;
59599;SDS011;61855;55.030;73.326;2022-08-21T10:59:05;10.07;;;5.50;;
59599;SDS011;61855;55.030;73.326;2022-08-21T11:07:55;10.60;;;5.30;;
59599;SDS011;61855;55.030;73.326;2022-08-21T11:15:51;3.80;;;2.50;;
59599;SDS011;61855;55.030;73.326;2022-08-21T11:18:36;3.45;;;1.58;;
59599;SDS011;61855;55.030;73.326;2022-08-21T11:29:47;7.07;;;2.53;;
59599;SDS011;61855;55.030;73.326;2022-08-21T11:51:52;8.65;;;2.88;;
59599;SDS011;61855;55.030;73.326;2022-08-21T11:56:50;5.28;;;2.53;;
59599;SDS011;61855;55.030;73.326;2022-08-21T11:59:51;4.45;;;2.05;;
59599;SDS011;61855;55.030;73.326;2022-08-21T12:02:28;10.18;;;3.53;;
59599;SDS011;61855;55.030;73.326;2022-08-21T12:05:01;6.35;;;2.00;;
59599;SDS011;61855;55.030;73.326;2022-08-21T12:07:35;9.85;;;4.93;;
59599;SDS011;61855;55.030;73.326;2022-08-21T12:10:18;6.32;;;2.72;;
59599;SDS011;61855;55.030;73.326;2022-08-21T12:12:52;5.75;;;2.63;;
59599;SDS011;61855;55.030;73.326;2022-08-21T12:15:27;6.95;;;3.58;;
59599;SDS011;61855;55.030;73.326;2022-08-21T12:17:58;3.97;;;2.20;;
59599;SDS011;61855;55.030;73.326;2022-08-21T12:20:45;6.32;;;3.85;;
59599;SDS011;61855;55.030;73.326;2022-08-21T12:23:44;7.35;;;3.40;;
59599;SDS011;61855;55.030;73.326;2022-08-21T12:29:10;12.02;;;5.00;;
59599;SDS011;61855;55.030;73.326;2022-08-21T12:31:49;9.77;;;4.35;;
59599;SDS011;61855;55.030;73.326;2022-08-21T12:34:18;8.55;;;3.38;;
59599;SDS011;61855;55.030;73.326;2022-08-21T12:36:54;10.98;;;6.43;;
59599;SDS011;61855;55.030;73.326;2022-08-21T12:39:26;9.85;;;4.32;;
59599;SDS011;61855;55.030;73.326;2022-08-21T12:42:05;9.20;;;4.30;;
59599;SDS011;61855;55.030;73.326;2022-08-21T12:45:00;11.70;;;5.38;;
59599;SDS011;61855;55.030;73.326;2022-08-21T12:50:26;22.45;;;9.23;;
59599;SDS011;61855;55.030;73.326;2022-08-21T12:53:11;8.10;;;2.22;;
59599;SDS011;61855;55.030;73.326;2022-08-21T12:56:03;4.85;;;2.40;;
59599;SDS011;61855;55.030;73.326;2022-08-21T12:58:34;4.97;;;1.80;;
59599;SDS011;61855;55.030;73.326;2022-08-21T13:01:07;9.27;;;3.33;;
59599;SDS011;61855;55.030;73.326;2022-08-21T13:03:44;6.95;;;2.90;;
59599;SDS011;61855;55.030;73.326;2022-08-21T13:06:15;3.95;;;2.00;;
59599;SDS011;61855;55.030;73.326;2022-08-21T13:08:44;4.78;;;1.85;;
59599;SDS011;61855;55.030;73.326;2022-08-21T13:11:13;7.18;;;1.83;;
59599;SDS011;61855;55.030;73.326;2022-08-21T13:13:43;2.65;;;0.93;;
59599;SDS011;61855;55.030;73.326;2022-08-21T13:16:13;1.90;;;1.10;;
59599;SDS011;61855;55.030;73.326;2022-08-21T13:19:00;3.97;;;1.38;;
59599;SDS011;61855;55.030;73.326;2022-08-21T13:21:40;4.57;;;2.00;;
59599;SDS011;61855;55.030;73.326;2022-08-21T13:24:23;3.90;;;1.88;;
59599;SDS011;61855;55.030;73.326;2022-08-21T13:26:50;7.38;;;3.75;;
59599;SDS011;61855;55.030;73.326;2022-08-21T13:29:18;12.88;;;5.53;;
59599;SDS011;61855;55.030;73.326;2022-08-21T13:31:55;10.95;;;4.80;;
59599;SDS011;61855;55.030;73.326;2022-08-21T13:34:25;19.70;;;9.10;;
59599;SDS011;61855;55.030;73.326;2022-08-21T13:36:57;19.38;;;9.90;;
59599;SDS011;61855;55.030;73.326;2022-08-21T13:39:26;25.05;;;12.68;;
59599;SDS011;61855;55.030;73.326;2022-08-21T13:41:54;34.38;;;16.48;;
59599;SDS011;61855;55.030;73.326;2022-08-21T13:44:23;41.50;;;20.42;;
59599;SDS011;61855;55.030;73.326;2022-08-21T13:47:01;13.27;;;6.57;;
59599;SDS011;61855;55.030;73.326;2022-08-21T13:49:34;10.18;;;5.20;;
59599;SDS011;61855;55.030;73.326;2022-08-21T13:52:03;8.13;;;3.10;;
59599;SDS011;61855;55.030;73.326;2022-08-21T13:54:34;5.90;;;2.00;;
59599;SDS011;61855;55.030;73.326;2022-08-21T13:57:15;5.15;;;2.38;;
59599;SDS011;61855;55.030;73.326;2022-08-21T13:59:50;7.82;;;2.40;;
59599;SDS011;61855;55.030;73.326;2022-08-21T14:02:20;8.55;;;1.80;;
59599;SDS011;61855;55.030;73.326;2022-08-21T14:10:00;9.10;;;4.15;;
59599;SDS011;61855;55.030;73.326;2022-08-21T14:12:31;7.63;;;2.95;;
59599;SDS011;61855;55.030;73.326;2022-08-21T14:15:03;6.85;;;2.72;;
59599;SDS011;61855;55.030;73.326;2022-08-21T14:17:32;6.47;;;3.42;;
59599;SDS011;61855;55.030;73.326;2022-08-21T14:20:01;21.00;;;9.25;;
59599;SDS011;61855;55.030;73.326;2022-08-21T14:25:13;16.13;;;6.28;;
59599;SDS011;61855;55.030;73.326;2022-08-21T14:28:02;14.18;;;6.80;;
59599;SDS011;61855;55.030;73.326;2022-08-21T14:30:34;10.40;;;3.80;;
59599;SDS011;61855;55.030;73.326;2022-08-21T14:33:09;12.25;;;5.72;;
59599;SDS011;61855;55.030;73.326;2022-08-21T14:35:37;23.65;;;10.13;;
59599;SDS011;61855;55.030;73.326;2022-08-21T14:38:11;16.40;;;7.88;;
59599;SDS011;61855;55.030;73.326;2022-08-21T14:40:39;12.93;;;5.57;;
59599;SDS011;61855;55.030;73.326;2022-08-21T14:43:05;20.42;;;9.63;;
59599;SDS011;61855;55.030;73.326;2022-08-21T14:45:33;13.77;;;6.40;;
59599;SDS011;61855;55.030;73.326;2022-08-21T14:48:02;13.25;;;5.70;;
59599;SDS011;61855;55.030;73.326;2022-08-21T14:50:28;8.32;;;4.07;;
59599;SDS011;61855;55.030;73.326;2022-08-21T14:52:54;8.00;;;3.33;;
59599;SDS011;61855;55.030;73.326;2022-08-21T14:55:20;8.80;;;3.60;;
59599;SDS011;61855;55.030;73.326;2022-08-21T14:57:52;4.22;;;2.13;;
59599;SDS011;61855;55.030;73.326;2022-08-21T15:00:22;3.40;;;1.98;;
59599;SDS011;61855;55.030;73.326;2022-08-21T15:02:50;14.40;;;2.63;;
59599;SDS011;61855;55.030;73.326;2022-08-21T15:05:25;5.28;;;2.40;;
59599;SDS011;61855;55.030;73.326;2022-08-21T15:07:51;12.68;;;2.70;;
59599;SDS011;61855;55.030;73.326;2022-08-21T15:10:28;8.35;;;2.80;;
59599;SDS011;61855;55.030;73.326;2022-08-21T15:12:55;10.18;;;2.60;;
59599;SDS011;61855;55.030;73.326;2022-08-21T15:15:22;4.95;;;2.58;;
59599;SDS011;61855;55.030;73.326;2022-08-21T15:17:57;10.07;;;3.20;;
59599;SDS011;61855;55.030;73.326;2022-08-21T15:20:23;19.60;;;6.90;;
59599;SDS011;61855;55.030;73.326;2022-08-21T15:22:49;15.85;;;6.95;;
59599;SDS011;61855;55.030;73.326;2022-08-21T15:25:15;13.38;;;7.20;;
59599;SDS011;61855;55.030;73.326;2022-08-21T15:27:41;11.57;;;4.20;;
59599;SDS011;61855;55.030;73.326;2022-08-21T15:30:07;10.82;;;3.42;;
59599;SDS011;61855;55.030;73.326;2022-08-21T15:32:33;27.25;;;12.15;;
59599;SDS011;61855;55.030;73.326;2022-08-21T15:34:59;25.52;;;12.05;;
59599;SDS011;61855;55.030;73.326;2022-08-21T15:37:26;10.98;;;5.45;;
59599;SDS011;61855;55.030;73.326;2022-08-21T15:40:03;24.02;;;12.63;;
59599;SDS011;61855;55.030;73.326;2022-08-21T15:42:32;13.45;;;6.13;;
59599;SDS011;61855;55.030;73.326;2022-08-21T15:45:00;8.93;;;4.35;;
59599;SDS011;61855;55.030;73.326;2022-08-21T15:47:30;10.57;;;5.13;;
59599;SDS011;61855;55.030;73.326;2022-08-21T15:50:09;11.38;;;4.20;;
59599;SDS011;61855;55.030;73.326;2022-08-21T15:52:37;9.63;;;3.67;;
59599;SDS011;61855;55.030;73.326;2022-08-21T15:55:04;13.20;;;3.75;;
59599;SDS011;61855;55.030;73.326;2022-08-21T16:00:48;9.07;;;3.05;;
59599;SDS011;61855;55.030;73.326;2022-08-21T16:07:54;10.30;;;3.10;;
59599;SDS011;61855;55.030;73.326;2022-08-21T16:10:34;5.32;;;3.05;;
59599;SDS011;61855;55.030;73.326;2022-08-21T16:13:29;7.90;;;2.80;;
59599;SDS011;61855;55.030;73.326;2022-08-21T16:16:15;8.18;;;2.00;;
59599;SDS011;61855;55.030;73.326;2022-08-21T16:22:14;5.28;;;2.30;;
59599;SDS011;61855;55.030;73.326;2022-08-21T16:28:17;6.07;;;2.40;;
59599;SDS011;61855;55.030;73.326;2022-08-21T16:30:46;4.57;;;2.22;;
59599;SDS011;61855;55.030;73.326;2022-08-21T16:33:32;6.05;;;1.90;;
59599;SDS011;61855;55.030;73.326;2022-08-21T16:35:59;4.80;;;1.83;;
59599;SDS011;61855;55.030;73.326;2022-08-21T16:38:27;9.27;;;2.22;;
59599;SDS011;61855;55.030;73.326;2022-08-21T16:40:54;3.72;;;1.77;;
59599;SDS011;61855;55.030;73.326;2022-08-21T16:43:30;5.13;;;1.80;;
59599;SDS011;61855;55.030;73.326;2022-08-21T16:45:57;4.35;;;1.88;;
59599;SDS011;61855;55.030;73.326;2022-08-21T16:48:23;12.98;;;2.55;;
59599;SDS011;61855;55.030;73.326;2022-08-21T16:50:50;5.75;;;1.95;;